sensor_id;sensor_type;location;lat;lon;timestamp;P1;durP1;ratioP1;P2;durP2;ratioP2
68010;SDS011;54794;48.348;7.878;2023-11-22T06:29:02;1.90;;;1.17;;
68010;SDS011;54794;48.348;7.878;2023-11-22T06:31:29;1.30;;;1.10;;
68010;SDS011;54794;48.348;7.878;2023-11-22T06:33:56;3.35;;;1.15;;
68010;SDS011;54794;48.348;7.878;2023-11-22T06:36:23;2.67;;;1.00;;
68010;SDS011;54794;48.348;7.878;2023-11-22T06:38:49;2.00;;;1.20;;
68010;SDS011;54794;48.348;7.878;2023-11-22T06:41:16;1.87;;;1.40;;
68010;SDS011;54794;48.348;7.878;2023-11-22T06:43:43;1.65;;;0.93;;
68010;SDS011;54794;48.348;7.878;2023-11-22T06:46:11;1.67;;;1.10;;
68010;SDS011;54794;48.348;7.878;2023-11-22T06:48:38;1.60;;;1.10;;
68010;SDS011;54794;48.348;7.878;2023-11-22T06:51:05;2.38;;;1.30;;
68010;SDS011;54794;48.348;7.878;2023-11-22T06:53:33;2.25;;;1.50;;
68010;SDS011;54794;48.348;7.878;2023-11-22T06:55:59;2.57;;;1.30;;
68010;SDS011;54794;48.348;7.878;2023-11-22T06:58:27;3.28;;;1.15;;
68010;SDS011;54794;48.348;7.878;2023-11-22T07:00:54;1.65;;;1.20;;
68010;SDS011;54794;48.348;7.878;2023-11-22T07:03:21;2.00;;;1.13;;
68010;SDS011;54794;48.348;7.878;2023-11-22T07:05:48;2.35;;;1.27;;
68010;SDS011;54794;48.348;7.878;2023-11-22T07:08:15;2.95;;;1.30;;
68010;SDS011;54794;48.348;7.878;2023-11-22T07:10:43;1.73;;;1.10;;
68010;SDS011;54794;48.348;7.878;2023-11-22T07:13:12;2.38;;;1.38;;
68010;SDS011;54794;48.348;7.878;2023-11-22T07:15:39;1.70;;;1.15;;
68010;SDS011;54794;48.348;7.878;2023-11-22T07:18:07;2.80;;;1.52;;
68010;SDS011;54794;48.348;7.878;2023-11-22T07:20:36;2.08;;;1.35;;
68010;SDS011;54794;48.348;7.878;2023-11-22T07:23:05;2.35;;;1.40;;
68010;SDS011;54794;48.348;7.878;2023-11-22T07:28:00;1.88;;;1.15;;
68010;SDS011;54794;48.348;7.878;2023-11-22T07:30:27;1.70;;;1.30;;
68010;SDS011;54794;48.348;7.878;2023-11-22T07:32:57;1.75;;;1.13;;
68010;SDS011;54794;48.348;7.878;2023-11-22T07:35:25;2.03;;;1.20;;
68010;SDS011;54794;48.348;7.878;2023-11-22T07:37:55;1.73;;;1.10;;
68010;SDS011;54794;48.348;7.878;2023-11-22T07:40:21;2.17;;;1.33;;
68010;SDS011;54794;48.348;7.878;2023-11-22T07:42:48;2.15;;;1.15;;
68010;SDS011;54794;48.348;7.878;2023-11-22T07:45:15;1.38;;;0.95;;
68010;SDS011;54794;48.348;7.878;2023-11-22T07:47:46;2.25;;;1.30;;
68010;SDS011;54794;48.348;7.878;2023-11-22T07:50:26;2.20;;;1.40;;
68010;SDS011;54794;48.348;7.878;2023-11-22T07:52:53;1.58;;;1.15;;
68010;SDS011;54794;48.348;7.878;2023-11-22T07:55:23;2.25;;;1.00;;
68010;SDS011;54794;48.348;7.878;2023-11-22T07:57:50;1.98;;;1.30;;
68010;SDS011;54794;48.348;7.878;2023-11-22T08:00:19;1.77;;;1.15;;
68010;SDS011;54794;48.348;7.878;2023-11-22T08:02:46;1.13;;;0.85;;
68010;SDS011;54794;48.348;7.878;2023-11-22T08:05:14;1.42;;;1.05;;
68010;SDS011;54794;48.348;7.878;2023-11-22T08:07:42;1.35;;;0.93;;
68010;SDS011;54794;48.348;7.878;2023-11-22T08:10:14;1.38;;;1.05;;
68010;SDS011;54794;48.348;7.878;2023-11-22T08:12:47;1.85;;;1.15;;
68010;SDS011;54794;48.348;7.878;2023-11-22T08:15:17;2.45;;;1.15;;
68010;SDS011;54794;48.348;7.878;2023-11-22T08:17:46;1.95;;;1.20;;
68010;SDS011;54794;48.348;7.878;2023-11-22T08:22:45;1.58;;;1.00;;
68010;SDS011;54794;48.348;7.878;2023-11-22T08:25:13;2.15;;;1.20;;
68010;SDS011;54794;48.348;7.878;2023-11-22T08:27:41;2.03;;;1.20;;
68010;SDS011;54794;48.348;7.878;2023-11-22T08:32:41;1.30;;;0.90;;
68010;SDS011;54794;48.348;7.878;2023-11-22T08:35:10;1.85;;;1.10;;
68010;SDS011;54794;48.348;7.878;2023-11-22T08:37:47;2.00;;;0.98;;
68010;SDS011;54794;48.348;7.878;2023-11-22T08:40:19;2.60;;;1.10;;
68010;SDS011;54794;48.348;7.878;2023-11-22T08:45:20;1.63;;;1.00;;
68010;SDS011;54794;48.348;7.878;2023-11-22T08:47:52;1.98;;;1.05;;
68010;SDS011;54794;48.348;7.878;2023-11-22T08:50:33;1.80;;;1.10;;
68010;SDS011;54794;48.348;7.878;2023-11-22T08:53:00;1.85;;;1.13;;
68010;SDS011;54794;48.348;7.878;2023-11-22T08:55:27;1.65;;;0.77;;
68010;SDS011;54794;48.348;7.878;2023-11-22T08:57:54;1.42;;;0.82;;
68010;SDS011;54794;48.348;7.878;2023-11-22T09:00:20;1.60;;;1.13;;
68010;SDS011;54794;48.348;7.878;2023-11-22T09:02:54;1.10;;;0.82;;
68010;SDS011;54794;48.348;7.878;2023-11-22T09:07:48;1.67;;;0.90;;
68010;SDS011;54794;48.348;7.878;2023-11-22T09:10:17;3.50;;;1.23;;
68010;SDS011;54794;48.348;7.878;2023-11-22T09:12:48;1.13;;;0.75;;
68010;SDS011;54794;48.348;7.878;2023-11-22T09:15:17;1.67;;;1.00;;
68010;SDS011;54794;48.348;7.878;2023-11-22T09:17:45;1.50;;;0.95;;
68010;SDS011;54794;48.348;7.878;2023-11-22T09:20:14;1.17;;;0.85;;
68010;SDS011;54794;48.348;7.878;2023-11-22T09:22:43;1.67;;;0.90;;
68010;SDS011;54794;48.348;7.878;2023-11-22T09:25:15;1.90;;;1.05;;
68010;SDS011;54794;48.348;7.878;2023-11-22T09:27:51;1.63;;;1.00;;
68010;SDS011;54794;48.348;7.878;2023-11-22T09:30:26;1.85;;;0.90;;
68010;SDS011;54794;48.348;7.878;2023-11-22T09:33:09;2.20;;;0.90;;
68010;SDS011;54794;48.348;7.878;2023-11-22T09:35:40;1.75;;;0.95;;
68010;SDS011;54794;48.348;7.878;2023-11-22T09:38:10;1.15;;;0.77;;
68010;SDS011;54794;48.348;7.878;2023-11-22T09:40:45;1.38;;;0.77;;
68010;SDS011;54794;48.348;7.878;2023-11-22T09:43:22;2.05;;;0.85;;
68010;SDS011;54794;48.348;7.878;2023-11-22T09:45:56;1.25;;;0.90;;
68010;SDS011;54794;48.348;7.878;2023-11-22T09:48:25;1.38;;;0.95;;
68010;SDS011;54794;48.348;7.878;2023-11-22T09:53:57;0.98;;;0.68;;
68010;SDS011;54794;48.348;7.878;2023-11-22T09:56:30;1.50;;;0.73;;
68010;SDS011;54794;48.348;7.878;2023-11-22T09:58:59;1.00;;;0.70;;
68010;SDS011;54794;48.348;7.878;2023-11-22T10:01:29;0.95;;;0.68;;
68010;SDS011;54794;48.348;7.878;2023-11-22T10:03:59;1.35;;;0.93;;
68010;SDS011;54794;48.348;7.878;2023-11-22T10:06:26;2.53;;;0.90;;
68010;SDS011;54794;48.348;7.878;2023-11-22T10:08:57;1.30;;;0.75;;
68010;SDS011;54794;48.348;7.878;2023-11-22T10:11:26;1.13;;;0.98;;
68010;SDS011;54794;48.348;7.878;2023-11-22T10:13:55;1.52;;;0.88;;
68010;SDS011;54794;48.348;7.878;2023-11-22T10:16:25;1.63;;;1.05;;
68010;SDS011;54794;48.348;7.878;2023-11-22T10:18:52;1.17;;;0.93;;
68010;SDS011;54794;48.348;7.878;2023-11-22T10:23:57;1.30;;;0.90;;
68010;SDS011;54794;48.348;7.878;2023-11-22T10:26:29;1.30;;;0.85;;
68010;SDS011;54794;48.348;7.878;2023-11-22T10:28:57;1.02;;;0.70;;
68010;SDS011;54794;48.348;7.878;2023-11-22T10:33:52;1.35;;;0.60;;
68010;SDS011;54794;48.348;7.878;2023-11-22T10:36:25;3.80;;;0.80;;
68010;SDS011;54794;48.348;7.878;2023-11-22T10:38:52;2.45;;;0.90;;
68010;SDS011;54794;48.348;7.878;2023-11-22T10:41:21;1.20;;;0.90;;
68010;SDS011;54794;48.348;7.878;2023-11-22T10:43:51;3.45;;;0.93;;
68010;SDS011;54794;48.348;7.878;2023-11-22T10:46:26;1.25;;;0.80;;
68010;SDS011;54794;48.348;7.878;2023-11-22T10:48:55;1.20;;;0.70;;
68010;SDS011;54794;48.348;7.878;2023-11-22T10:51:24;1.67;;;0.80;;
68010;SDS011;54794;48.348;7.878;2023-11-22T10:54:00;1.30;;;0.90;;
68010;SDS011;54794;48.348;7.878;2023-11-22T10:56:32;0.98;;;0.70;;
68010;SDS011;54794;48.348;7.878;2023-11-22T10:59:11;1.67;;;0.93;;
68010;SDS011;54794;48.348;7.878;2023-11-22T11:01:48;1.70;;;0.82;;
68010;SDS011;54794;48.348;7.878;2023-11-22T11:04:19;1.92;;;1.05;;
68010;SDS011;54794;48.348;7.878;2023-11-22T11:06:55;2.35;;;1.00;;
68010;SDS011;54794;48.348;7.878;2023-11-22T11:09:24;1.33;;;0.85;;
68010;SDS011;54794;48.348;7.878;2023-11-22T11:11:58;1.23;;;0.88;;
68010;SDS011;54794;48.348;7.878;2023-11-22T11:14:26;1.58;;;0.95;;
68010;SDS011;54794;48.348;7.878;2023-11-22T11:16:54;1.60;;;1.15;;
68010;SDS011;54794;48.348;7.878;2023-11-22T11:19:24;1.90;;;1.15;;
68010;SDS011;54794;48.348;7.878;2023-11-22T11:21:54;1.75;;;1.00;;
68010;SDS011;54794;48.348;7.878;2023-11-22T11:24:23;1.77;;;0.77;;
68010;SDS011;54794;48.348;7.878;2023-11-22T11:26:50;1.50;;;0.90;;
68010;SDS011;54794;48.348;7.878;2023-11-22T11:29:40;1.60;;;0.95;;
68010;SDS011;54794;48.348;7.878;2023-11-22T11:32:11;1.20;;;0.77;;
68010;SDS011;54794;48.348;7.878;2023-11-22T11:34:57;1.42;;;0.93;;
68010;SDS011;54794;48.348;7.878;2023-11-22T11:37:46;1.48;;;0.80;;
68010;SDS011;54794;48.348;7.878;2023-11-22T11:40:31;1.20;;;0.88;;
68010;SDS011;54794;48.348;7.878;2023-11-22T11:43:04;1.45;;;0.95;;
68010;SDS011;54794;48.348;7.878;2023-11-22T11:45:34;1.30;;;0.70;;
68010;SDS011;54794;48.348;7.878;2023-11-22T11:48:06;2.17;;;1.20;;
68010;SDS011;54794;48.348;7.878;2023-11-22T11:50:33;2.13;;;1.30;;
68010;SDS011;54794;48.348;7.878;2023-11-22T11:53:01;1.50;;;1.02;;
68010;SDS011;54794;48.348;7.878;2023-11-22T11:55:28;1.42;;;1.00;;
68010;SDS011;54794;48.348;7.878;2023-11-22T11:57:58;1.33;;;0.90;;
68010;SDS011;54794;48.348;7.878;2023-11-22T12:00:37;1.67;;;0.82;;
68010;SDS011;54794;48.348;7.878;2023-11-22T12:03:07;1.60;;;0.98;;
68010;SDS011;54794;48.348;7.878;2023-11-22T12:05:40;1.65;;;0.85;;
68010;SDS011;54794;48.348;7.878;2023-11-22T12:08:10;2.28;;;1.13;;
68010;SDS011;54794;48.348;7.878;2023-11-22T12:10:48;1.95;;;1.00;;
68010;SDS011;54794;48.348;7.878;2023-11-22T12:13:19;2.75;;;1.15;;
68010;SDS011;54794;48.348;7.878;2023-11-22T12:15:47;2.40;;;1.10;;
68010;SDS011;54794;48.348;7.878;2023-11-22T12:18:14;1.50;;;0.98;;
68010;SDS011;54794;48.348;7.878;2023-11-22T12:20:58;1.30;;;0.90;;
68010;SDS011;54794;48.348;7.878;2023-11-22T12:23:26;0.98;;;0.80;;
68010;SDS011;54794;48.348;7.878;2023-11-22T12:25:58;1.40;;;1.00;;
68010;SDS011;54794;48.348;7.878;2023-11-22T12:28:29;1.88;;;1.10;;
68010;SDS011;54794;48.348;7.878;2023-11-22T12:31:20;1.80;;;1.17;;
68010;SDS011;54794;48.348;7.878;2023-11-22T12:33:49;1.92;;;1.35;;
68010;SDS011;54794;48.348;7.878;2023-11-22T12:36:19;1.55;;;1.02;;
68010;SDS011;54794;48.348;7.878;2023-11-22T12:38:49;1.40;;;0.90;;
68010;SDS011;54794;48.348;7.878;2023-11-22T12:41:16;1.30;;;0.80;;
68010;SDS011;54794;48.348;7.878;2023-11-22T12:44:00;1.67;;;1.00;;
68010;SDS011;54794;48.348;7.878;2023-11-22T12:46:44;1.50;;;0.90;;
68010;SDS011;54794;48.348;7.878;2023-11-22T12:49:26;1.25;;;0.80;;
68010;SDS011;54794;48.348;7.878;2023-11-22T12:51:53;1.33;;;0.93;;
68010;SDS011;54794;48.348;7.878;2023-11-22T12:54:25;2.35;;;0.82;;
68010;SDS011;54794;48.348;7.878;2023-11-22T12:56:55;1.63;;;0.93;;
68010;SDS011;54794;48.348;7.878;2023-11-22T12:59:26;1.27;;;0.82;;
68010;SDS011;54794;48.348;7.878;2023-11-22T13:01:57;1.60;;;1.20;;
68010;SDS011;54794;48.348;7.878;2023-11-22T13:04:27;1.67;;;0.77;;
68010;SDS011;54794;48.348;7.878;2023-11-22T13:06:57;1.38;;;0.98;;
68010;SDS011;54794;48.348;7.878;2023-11-22T13:09:28;1.40;;;1.02;;
68010;SDS011;54794;48.348;7.878;2023-11-22T13:11:58;1.30;;;0.90;;
68010;SDS011;54794;48.348;7.878;2023-11-22T13:14:25;1.63;;;0.85;;
68010;SDS011;54794;48.348;7.878;2023-11-22T13:16:56;1.27;;;0.80;;
68010;SDS011;54794;48.348;7.878;2023-11-22T13:19:23;1.23;;;0.65;;
68010;SDS011;54794;48.348;7.878;2023-11-22T13:21:50;1.45;;;0.88;;
68010;SDS011;54794;48.348;7.878;2023-11-22T13:26:46;3.28;;;0.90;;
68010;SDS011;54794;48.348;7.878;2023-11-22T13:29:13;1.20;;;0.70;;
68010;SDS011;54794;48.348;7.878;2023-11-22T13:31:40;1.33;;;0.80;;
68010;SDS011;54794;48.348;7.878;2023-11-22T13:34:07;1.52;;;0.70;;
68010;SDS011;54794;48.348;7.878;2023-11-22T13:36:34;1.57;;;0.80;;
68010;SDS011;54794;48.348;7.878;2023-11-22T13:39:01;1.63;;;0.98;;
68010;SDS011;54794;48.348;7.878;2023-11-22T13:41:29;1.02;;;0.55;;
68010;SDS011;54794;48.348;7.878;2023-11-22T13:43:56;3.75;;;1.00;;
68010;SDS011;54794;48.348;7.878;2023-11-22T13:46:23;1.63;;;0.90;;
68010;SDS011;54794;48.348;7.878;2023-11-22T13:48:49;1.63;;;0.75;;
68010;SDS011;54794;48.348;7.878;2023-11-22T13:51:16;2.03;;;0.80;;
68010;SDS011;54794;48.348;7.878;2023-11-22T13:53:43;1.70;;;0.87;;
68010;SDS011;54794;48.348;7.878;2023-11-22T13:56:15;1.85;;;0.98;;
68010;SDS011;54794;48.348;7.878;2023-11-22T13:58:44;3.22;;;1.33;;
68010;SDS011;54794;48.348;7.878;2023-11-22T14:01:11;1.73;;;1.03;;
68010;SDS011;54794;48.348;7.878;2023-11-22T14:03:40;1.80;;;1.02;;
68010;SDS011;54794;48.348;7.878;2023-11-22T14:06:07;1.60;;;0.90;;
68010;SDS011;54794;48.348;7.878;2023-11-22T14:08:35;2.67;;;1.27;;
68010;SDS011;54794;48.348;7.878;2023-11-22T14:11:02;1.20;;;0.85;;
68010;SDS011;54794;48.348;7.878;2023-11-22T14:13:29;1.17;;;0.85;;
68010;SDS011;54794;48.348;7.878;2023-11-22T14:15:56;1.50;;;0.90;;
68010;SDS011;54794;48.348;7.878;2023-11-22T14:18:23;1.40;;;0.85;;
68010;SDS011;54794;48.348;7.878;2023-11-22T14:20:51;1.73;;;0.80;;
68010;SDS011;54794;48.348;7.878;2023-11-22T14:23:19;2.35;;;1.10;;
68010;SDS011;54794;48.348;7.878;2023-11-22T14:25:46;1.88;;;1.15;;
68010;SDS011;54794;48.348;7.878;2023-11-22T14:28:13;1.53;;;0.97;;
68010;SDS011;54794;48.348;7.878;2023-11-22T14:30:40;1.17;;;0.73;;
68010;SDS011;54794;48.348;7.878;2023-11-22T14:33:07;1.52;;;1.02;;
68010;SDS011;54794;48.348;7.878;2023-11-22T14:35:36;1.50;;;1.02;;
68010;SDS011;54794;48.348;7.878;2023-11-22T14:38:03;1.30;;;0.80;;
68010;SDS011;54794;48.348;7.878;2023-11-22T14:40:32;1.60;;;1.08;;
68010;SDS011;54794;48.348;7.878;2023-11-22T14:42:59;1.45;;;0.90;;
68010;SDS011;54794;48.348;7.878;2023-11-22T14:45:29;1.25;;;0.80;;
68010;SDS011;54794;48.348;7.878;2023-11-22T14:50:24;2.08;;;0.90;;
68010;SDS011;54794;48.348;7.878;2023-11-22T14:52:54;1.58;;;0.95;;
68010;SDS011;54794;48.348;7.878;2023-11-22T14:55:22;1.42;;;1.00;;
68010;SDS011;54794;48.348;7.878;2023-11-22T14:57:52;1.60;;;0.90;;
68010;SDS011;54794;48.348;7.878;2023-11-22T15:00:24;0.93;;;0.60;;
68010;SDS011;54794;48.348;7.878;2023-11-22T15:02:51;1.27;;;0.85;;
68010;SDS011;54794;48.348;7.878;2023-11-22T15:05:20;1.60;;;0.80;;
68010;SDS011;54794;48.348;7.878;2023-11-22T15:07:48;1.52;;;0.88;;
68010;SDS011;54794;48.348;7.878;2023-11-22T15:10:20;1.30;;;0.90;;
68010;SDS011;54794;48.348;7.878;2023-11-22T15:12:47;1.13;;;0.90;;
68010;SDS011;54794;48.348;7.878;2023-11-22T15:15:14;1.00;;;0.70;;
68010;SDS011;54794;48.348;7.878;2023-11-22T15:17:41;1.40;;;0.90;;
68010;SDS011;54794;48.348;7.878;2023-11-22T15:20:09;1.13;;;0.75;;
68010;SDS011;54794;48.348;7.878;2023-11-22T15:22:39;1.85;;;1.15;;
68010;SDS011;54794;48.348;7.878;2023-11-22T15:25:07;1.10;;;0.75;;
68010;SDS011;54794;48.348;7.878;2023-11-22T15:27:35;1.15;;;0.93;;
68010;SDS011;54794;48.348;7.878;2023-11-22T15:30:02;0.90;;;0.70;;
68010;SDS011;54794;48.348;7.878;2023-11-22T15:32:30;1.13;;;0.80;;
68010;SDS011;54794;48.348;7.878;2023-11-22T15:34:57;1.00;;;0.77;;
68010;SDS011;54794;48.348;7.878;2023-11-22T15:37:27;1.50;;;0.80;;
68010;SDS011;54794;48.348;7.878;2023-11-22T15:39:55;2.03;;;1.50;;
68010;SDS011;54794;48.348;7.878;2023-11-22T15:42:22;1.10;;;0.80;;
68010;SDS011;54794;48.348;7.878;2023-11-22T15:44:49;1.77;;;1.08;;
68010;SDS011;54794;48.348;7.878;2023-11-22T15:47:17;1.02;;;0.75;;
68010;SDS011;54794;48.348;7.878;2023-11-22T15:49:47;1.17;;;0.70;;
68010;SDS011;54794;48.348;7.878;2023-11-22T15:52:14;1.33;;;0.80;;
68010;SDS011;54794;48.348;7.878;2023-11-22T15:54:40;1.20;;;0.80;;
68010;SDS011;54794;48.348;7.878;2023-11-22T15:57:08;1.75;;;0.93;;
68010;SDS011;54794;48.348;7.878;2023-11-22T15:59:35;1.77;;;1.00;;
68010;SDS011;54794;48.348;7.878;2023-11-22T16:04:31;1.42;;;0.65;;
68010;SDS011;54794;48.348;7.878;2023-11-22T16:06:58;1.77;;;0.90;;
68010;SDS011;54794;48.348;7.878;2023-11-22T16:09:25;1.70;;;0.83;;
68010;SDS011;54794;48.348;7.878;2023-11-22T16:11:53;1.88;;;1.02;;
68010;SDS011;54794;48.348;7.878;2023-11-22T16:14:20;1.45;;;0.93;;
68010;SDS011;54794;48.348;7.878;2023-11-22T16:16:47;1.70;;;1.00;;
68010;SDS011;54794;48.348;7.878;2023-11-22T16:19:14;1.38;;;0.90;;
68010;SDS011;54794;48.348;7.878;2023-11-22T16:21:40;2.07;;;1.20;;
68010;SDS011;54794;48.348;7.878;2023-11-22T16:24:07;2.40;;;1.42;;
68010;SDS011;54794;48.348;7.878;2023-11-22T16:26:38;4.50;;;1.80;;
68010;SDS011;54794;48.348;7.878;2023-11-22T16:29:11;2.50;;;1.73;;
68010;SDS011;54794;48.348;7.878;2023-11-22T16:31:42;2.60;;;1.83;;
68010;SDS011;54794;48.348;7.878;2023-11-22T16:34:13;2.83;;;1.45;;
68010;SDS011;54794;48.348;7.878;2023-11-22T16:36:45;2.63;;;1.25;;
68010;SDS011;54794;48.348;7.878;2023-11-22T16:39:16;2.70;;;1.00;;
68010;SDS011;54794;48.348;7.878;2023-11-22T16:41:55;1.58;;;1.10;;
68010;SDS011;54794;48.348;7.878;2023-11-22T16:44:26;1.70;;;1.30;;
68010;SDS011;54794;48.348;7.878;2023-11-22T16:46:58;1.73;;;1.20;;
68010;SDS011;54794;48.348;7.878;2023-11-22T16:49:26;2.65;;;1.40;;
68010;SDS011;54794;48.348;7.878;2023-11-22T16:52:05;1.63;;;1.10;;
68010;SDS011;54794;48.348;7.878;2023-11-22T16:54:34;1.80;;;1.20;;
68010;SDS011;54794;48.348;7.878;2023-11-22T16:57:05;1.75;;;1.25;;
68010;SDS011;54794;48.348;7.878;2023-11-22T16:59:34;1.42;;;1.08;;
68010;SDS011;54794;48.348;7.878;2023-11-22T17:02:07;2.08;;;1.17;;
68010;SDS011;54794;48.348;7.878;2023-11-22T17:04:39;2.28;;;1.33;;
68010;SDS011;54794;48.348;7.878;2023-11-22T17:07:09;2.22;;;1.33;;
68010;SDS011;54794;48.348;7.878;2023-11-22T17:09:40;3.15;;;1.27;;
68010;SDS011;54794;48.348;7.878;2023-11-22T17:12:08;2.85;;;1.45;;
68010;SDS011;54794;48.348;7.878;2023-11-22T17:14:36;2.85;;;1.55;;
68010;SDS011;54794;48.348;7.878;2023-11-22T17:17:05;2.10;;;1.30;;
68010;SDS011;54794;48.348;7.878;2023-11-22T17:19:32;2.05;;;1.20;;
68010;SDS011;54794;48.348;7.878;2023-11-22T17:21:59;2.15;;;1.15;;
68010;SDS011;54794;48.348;7.878;2023-11-22T17:24:30;1.38;;;1.10;;
68010;SDS011;54794;48.348;7.878;2023-11-22T17:26:57;1.50;;;1.00;;
68010;SDS011;54794;48.348;7.878;2023-11-22T17:29:28;1.42;;;0.98;;
68010;SDS011;54794;48.348;7.878;2023-11-22T17:32:06;1.35;;;1.08;;
68010;SDS011;54794;48.348;7.878;2023-11-22T17:34:34;1.73;;;1.13;;
68010;SDS011;54794;48.348;7.878;2023-11-22T17:39:29;1.55;;;0.80;;
68010;SDS011;54794;48.348;7.878;2023-11-22T17:41:58;2.30;;;1.27;;
68010;SDS011;54794;48.348;7.878;2023-11-22T17:44:25;1.92;;;1.27;;
68010;SDS011;54794;48.348;7.878;2023-11-22T17:46:52;1.42;;;0.88;;
68010;SDS011;54794;48.348;7.878;2023-11-22T17:49:19;2.35;;;1.10;;
68010;SDS011;54794;48.348;7.878;2023-11-22T17:51:48;2.28;;;1.30;;
68010;SDS011;54794;48.348;7.878;2023-11-22T17:54:20;1.75;;;1.20;;
68010;SDS011;54794;48.348;7.878;2023-11-22T17:56:47;2.20;;;1.13;;
68010;SDS011;54794;48.348;7.878;2023-11-22T17:59:15;2.10;;;1.17;;
68010;SDS011;54794;48.348;7.878;2023-11-22T18:01:42;2.63;;;1.35;;
68010;SDS011;54794;48.348;7.878;2023-11-22T18:04:09;1.95;;;1.20;;
68010;SDS011;54794;48.348;7.878;2023-11-22T18:06:37;1.88;;;1.23;;
68010;SDS011;54794;48.348;7.878;2023-11-22T18:09:04;2.88;;;1.67;;
68010;SDS011;54794;48.348;7.878;2023-11-22T18:11:31;2.50;;;1.63;;
68010;SDS011;54794;48.348;7.878;2023-11-22T18:13:58;3.13;;;1.47;;
68010;SDS011;54794;48.348;7.878;2023-11-22T18:16:27;3.05;;;2.00;;
68010;SDS011;54794;48.348;7.878;2023-11-22T18:18:54;2.30;;;1.60;;
68010;SDS011;54794;48.348;7.878;2023-11-22T18:21:21;2.70;;;1.52;;
68010;SDS011;54794;48.348;7.878;2023-11-22T18:23:48;3.17;;;1.52;;
68010;SDS011;54794;48.348;7.878;2023-11-22T18:26:16;1.83;;;1.13;;
68010;SDS011;54794;48.348;7.878;2023-11-22T18:28:43;2.65;;;1.35;;
68010;SDS011;54794;48.348;7.878;2023-11-22T18:31:09;1.63;;;1.20;;
68010;SDS011;54794;48.348;7.878;2023-11-22T18:33:40;1.88;;;1.17;;
68010;SDS011;54794;48.348;7.878;2023-11-22T18:36:07;1.73;;;1.30;;
68010;SDS011;54794;48.348;7.878;2023-11-22T18:38:36;1.70;;;1.17;;
68010;SDS011;54794;48.348;7.878;2023-11-22T18:41:04;1.75;;;1.20;;
68010;SDS011;54794;48.348;7.878;2023-11-22T18:43:32;1.75;;;1.17;;
68010;SDS011;54794;48.348;7.878;2023-11-22T18:46:00;1.55;;;1.02;;
68010;SDS011;54794;48.348;7.878;2023-11-22T18:48:30;1.92;;;1.23;;
68010;SDS011;54794;48.348;7.878;2023-11-22T18:51:00;2.30;;;1.25;;
68010;SDS011;54794;48.348;7.878;2023-11-22T18:53:27;1.60;;;1.13;;
68010;SDS011;54794;48.348;7.878;2023-11-22T18:55:54;1.80;;;1.27;;
68010;SDS011;54794;48.348;7.878;2023-11-22T18:58:21;2.33;;;1.60;;
68010;SDS011;54794;48.348;7.878;2023-11-22T19:00:48;3.00;;;1.88;;
68010;SDS011;54794;48.348;7.878;2023-11-22T19:03:15;2.70;;;1.60;;
68010;SDS011;54794;48.348;7.878;2023-11-22T19:05:42;2.55;;;1.58;;
68010;SDS011;54794;48.348;7.878;2023-11-22T19:08:10;3.47;;;2.10;;
68010;SDS011;54794;48.348;7.878;2023-11-22T19:10:42;2.60;;;1.75;;
68010;SDS011;54794;48.348;7.878;2023-11-22T19:13:09;2.20;;;1.55;;
68010;SDS011;54794;48.348;7.878;2023-11-22T19:15:43;2.30;;;1.50;;
68010;SDS011;54794;48.348;7.878;2023-11-22T19:18:12;2.13;;;1.20;;
68010;SDS011;54794;48.348;7.878;2023-11-22T19:20:50;1.98;;;1.33;;
68010;SDS011;54794;48.348;7.878;2023-11-22T19:23:20;2.60;;;1.80;;
68010;SDS011;54794;48.348;7.878;2023-11-22T19:25:47;2.95;;;1.67;;
68010;SDS011;54794;48.348;7.878;2023-11-22T19:28:15;2.50;;;1.60;;
68010;SDS011;54794;48.348;7.878;2023-11-22T19:30:44;2.58;;;1.55;;
68010;SDS011;54794;48.348;7.878;2023-11-22T19:33:14;2.83;;;1.38;;
68010;SDS011;54794;48.348;7.878;2023-11-22T19:35:43;2.20;;;1.50;;
68010;SDS011;54794;48.348;7.878;2023-11-22T19:38:10;2.47;;;1.60;;
68010;SDS011;54794;48.348;7.878;2023-11-22T19:40:42;2.33;;;1.35;;
68010;SDS011;54794;48.348;7.878;2023-11-22T19:43:12;2.00;;;1.40;;
68010;SDS011;54794;48.348;7.878;2023-11-22T19:45:41;1.95;;;1.15;;
68010;SDS011;54794;48.348;7.878;2023-11-22T19:48:23;2.13;;;1.33;;
68010;SDS011;54794;48.348;7.878;2023-11-22T19:51:00;1.75;;;1.25;;
68010;SDS011;54794;48.348;7.878;2023-11-22T19:53:35;2.00;;;1.23;;
68010;SDS011;54794;48.348;7.878;2023-11-22T19:56:04;3.42;;;1.50;;
68010;SDS011;54794;48.348;7.878;2023-11-22T19:58:32;2.50;;;1.55;;
68010;SDS011;54794;48.348;7.878;2023-11-22T20:00:59;1.63;;;1.17;;
68010;SDS011;54794;48.348;7.878;2023-11-22T20:03:26;2.33;;;1.48;;
68010;SDS011;54794;48.348;7.878;2023-11-22T20:08:23;1.58;;;1.00;;
68010;SDS011;54794;48.348;7.878;2023-11-22T20:10:50;2.08;;;1.45;;
68010;SDS011;54794;48.348;7.878;2023-11-22T20:13:17;2.08;;;1.20;;
68010;SDS011;54794;48.348;7.878;2023-11-22T20:15:53;2.55;;;1.33;;
68010;SDS011;54794;48.348;7.878;2023-11-22T20:18:43;3.05;;;1.45;;
68010;SDS011;54794;48.348;7.878;2023-11-22T20:21:10;2.22;;;1.40;;
68010;SDS011;54794;48.348;7.878;2023-11-22T20:26:05;1.90;;;1.45;;
68010;SDS011;54794;48.348;7.878;2023-11-22T20:28:33;3.20;;;1.75;;
68010;SDS011;54794;48.348;7.878;2023-11-22T20:33:28;2.35;;;1.40;;
68010;SDS011;54794;48.348;7.878;2023-11-22T20:35:56;2.00;;;1.35;;
68010;SDS011;54794;48.348;7.878;2023-11-22T20:38:23;2.78;;;1.77;;
68010;SDS011;54794;48.348;7.878;2023-11-22T20:40:49;7.77;;;1.93;;
68010;SDS011;54794;48.348;7.878;2023-11-22T20:43:16;2.53;;;1.90;;
68010;SDS011;54794;48.348;7.878;2023-11-22T20:45:43;3.00;;;1.50;;
68010;SDS011;54794;48.348;7.878;2023-11-22T20:48:10;2.97;;;1.83;;
68010;SDS011;54794;48.348;7.878;2023-11-22T20:50:37;2.70;;;2.00;;
68010;SDS011;54794;48.348;7.878;2023-11-22T20:53:04;2.90;;;1.88;;
68010;SDS011;54794;48.348;7.878;2023-11-22T20:55:31;2.85;;;2.08;;
68010;SDS011;54794;48.348;7.878;2023-11-22T20:58:05;3.38;;;2.03;;
68010;SDS011;54794;48.348;7.878;2023-11-22T21:00:32;2.95;;;1.75;;
68010;SDS011;54794;48.348;7.878;2023-11-22T21:02:59;3.17;;;1.90;;
68010;SDS011;54794;48.348;7.878;2023-11-22T21:05:26;2.60;;;1.83;;
68010;SDS011;54794;48.348;7.878;2023-11-22T21:07:53;3.50;;;1.88;;
68010;SDS011;54794;48.348;7.878;2023-11-22T21:10:32;3.88;;;1.85;;
68010;SDS011;54794;48.348;7.878;2023-11-22T21:12:59;3.70;;;1.85;;
68010;SDS011;54794;48.348;7.878;2023-11-22T21:15:25;2.80;;;1.85;;
68010;SDS011;54794;48.348;7.878;2023-11-22T21:17:52;4.13;;;2.07;;
68010;SDS011;54794;48.348;7.878;2023-11-22T21:20:21;3.72;;;1.80;;
68010;SDS011;54794;48.348;7.878;2023-11-22T21:22:48;5.00;;;1.90;;
68010;SDS011;54794;48.348;7.878;2023-11-22T21:25:15;2.93;;;1.80;;
68010;SDS011;54794;48.348;7.878;2023-11-22T21:27:42;2.63;;;1.75;;
68010;SDS011;54794;48.348;7.878;2023-11-22T21:30:11;2.70;;;1.75;;
68010;SDS011;54794;48.348;7.878;2023-11-22T21:32:39;2.85;;;1.77;;
68010;SDS011;54794;48.348;7.878;2023-11-22T21:35:06;2.35;;;1.73;;
68010;SDS011;54794;48.348;7.878;2023-11-22T21:37:36;2.65;;;1.58;;
68010;SDS011;54794;48.348;7.878;2023-11-22T21:40:03;3.10;;;1.70;;
68010;SDS011;54794;48.348;7.878;2023-11-22T21:42:36;3.30;;;2.00;;
68010;SDS011;54794;48.348;7.878;2023-11-22T21:45:04;3.63;;;1.98;;
68010;SDS011;54794;48.348;7.878;2023-11-22T21:47:34;2.40;;;1.55;;
68010;SDS011;54794;48.348;7.878;2023-11-22T21:50:03;3.15;;;1.70;;
68010;SDS011;54794;48.348;7.878;2023-11-22T21:52:30;4.38;;;2.30;;
68010;SDS011;54794;48.348;7.878;2023-11-22T21:54:57;6.82;;;2.92;;
68010;SDS011;54794;48.348;7.878;2023-11-22T21:57:24;4.80;;;2.65;;
68010;SDS011;54794;48.348;7.878;2023-11-22T21:59:51;4.83;;;2.33;;
68010;SDS011;54794;48.348;7.878;2023-11-22T22:02:18;6.07;;;2.65;;
68010;SDS011;54794;48.348;7.878;2023-11-22T22:04:46;3.60;;;1.95;;
68010;SDS011;54794;48.348;7.878;2023-11-22T22:07:13;4.20;;;1.98;;